sensor_id;sensor_type;location;lat;lon;timestamp;temperature;humidity
26186;DHT22;20067;48.764;9.176;2023-03-01T00:02:20;2.00;83.30
26186;DHT22;20067;48.764;9.176;2023-03-01T00:04:46;2.00;83.30
26186;DHT22;20067;48.764;9.176;2023-03-01T00:07:13;2.00;83.40
26186;DHT22;20067;48.764;9.176;2023-03-01T00:09:38;2.10;83.30
26186;DHT22;20067;48.764;9.176;2023-03-01T00:12:05;2.10;83.30
26186;DHT22;20067;48.764;9.176;2023-03-01T00:14:31;2.10;83.30
26186;DHT22;20067;48.764;9.176;2023-03-01T00:16:56;2.10;83.40
26186;DHT22;20067;48.764;9.176;2023-03-01T00:19:22;2.10;83.20
26186;DHT22;20067;48.764;9.176;2023-03-01T00:21:48;2.10;83.10
26186;DHT22;20067;48.764;9.176;2023-03-01T00:24:15;2.10;83.20
26186;DHT22;20067;48.764;9.176;2023-03-01T00:26:40;2.10;83.20
26186;DHT22;20067;48.764;9.176;2023-03-01T00:29:06;2.00;83.20
26186;DHT22;20067;48.764;9.176;2023-03-01T00:31:33;2.00;83.20
26186;DHT22;20067;48.764;9.176;2023-03-01T00:34:02;2.00;83.20
26186;DHT22;20067;48.764;9.176;2023-03-01T00:36:31;1.90;83.50
26186;DHT22;20067;48.764;9.176;2023-03-01T00:38:57;1.80;83.60
26186;DHT22;20067;48.764;9.176;2023-03-01T00:41:23;1.80;83.80
26186;DHT22;20067;48.764;9.176;2023-03-01T00:43:50;1.80;83.80
26186;DHT22;20067;48.764;9.176;2023-03-01T00:46:18;1.80;83.80
26186;DHT22;20067;48.764;9.176;2023-03-01T00:48:44;1.80;83.70
26186;DHT22;20067;48.764;9.176;2023-03-01T00:53:38;1.80;83.70
26186;DHT22;20067;48.764;9.176;2023-03-01T00:56:05;1.80;83.70
26186;DHT22;20067;48.764;9.176;2023-03-01T00:58:32;1.70;84.10
26186;DHT22;20067;48.764;9.176;2023-03-01T01:00:57;1.60;84.50
26186;DHT22;20067;48.764;9.176;2023-03-01T01:03:23;1.60;84.40
26186;DHT22;20067;48.764;9.176;2023-03-01T01:05:53;1.40;84.60
26186;DHT22;20067;48.764;9.176;2023-03-01T01:08:20;1.20;85.50
26186;DHT22;20067;48.764;9.176;2023-03-01T01:10:46;1.20;85.80
26186;DHT22;20067;48.764;9.176;2023-03-01T01:13:13;1.30;85.70
26186;DHT22;20067;48.764;9.176;2023-03-01T01:15:39;1.30;85.50
26186;DHT22;20067;48.764;9.176;2023-03-01T01:18:05;1.20;85.60
26186;DHT22;20067;48.764;9.176;2023-03-01T01:20:31;1.20;85.20
26186;DHT22;20067;48.764;9.176;2023-03-01T01:22:57;1.00;85.90
26186;DHT22;20067;48.764;9.176;2023-03-01T01:25:23;0.90;86.40
26186;DHT22;20067;48.764;9.176;2023-03-01T01:27:50;0.90;86.50
26186;DHT22;20067;48.764;9.176;2023-03-01T01:30:16;0.90;86.50
26186;DHT22;20067;48.764;9.176;2023-03-01T01:32:42;0.90;86.30
26186;DHT22;20067;48.764;9.176;2023-03-01T01:35:08;0.90;86.50
26186;DHT22;20067;48.764;9.176;2023-03-01T01:37:33;0.70;87.20
26186;DHT22;20067;48.764;9.176;2023-03-01T01:40:00;0.70;87.50
26186;DHT22;20067;48.764;9.176;2023-03-01T01:42:28;0.80;87.20
26186;DHT22;20067;48.764;9.176;2023-03-01T01:47:57;0.90;86.70
26186;DHT22;20067;48.764;9.176;2023-03-01T01:50:23;0.90;87.20
26186;DHT22;20067;48.764;9.176;2023-03-01T01:52:50;1.00;86.90
26186;DHT22;20067;48.764;9.176;2023-03-01T01:55:20;1.10;86.30
26186;DHT22;20067;48.764;9.176;2023-03-01T01:57:54;1.20;85.80
26186;DHT22;20067;48.764;9.176;2023-03-01T02:00:27;1.30;85.70
26186;DHT22;20067;48.764;9.176;2023-03-01T02:03:07;1.30;85.50
26186;DHT22;20067;48.764;9.176;2023-03-01T02:08:22;1.30;84.90
26186;DHT22;20067;48.764;9.176;2023-03-01T02:10:49;1.40;84.70
26186;DHT22;20067;48.764;9.176;2023-03-01T02:13:15;1.30;84.60
26186;DHT22;20067;48.764;9.176;2023-03-01T02:15:41;1.30;85.10
26186;DHT22;20067;48.764;9.176;2023-03-01T02:18:11;1.40;84.70
26186;DHT22;20067;48.764;9.176;2023-03-01T02:23:28;1.50;84.10
26186;DHT22;20067;48.764;9.176;2023-03-01T02:26:28;1.40;84.40
26186;DHT22;20067;48.764;9.176;2023-03-01T02:28:45;1.50;84.40
26186;DHT22;20067;48.764;9.176;2023-03-01T02:31:16;1.60;83.90
26186;DHT22;20067;48.764;9.176;2023-03-01T02:34:01;1.70;83.70
26186;DHT22;20067;48.764;9.176;2023-03-01T02:36:36;1.60;83.60
26186;DHT22;20067;48.764;9.176;2023-03-01T02:39:04;1.60;83.60
26186;DHT22;20067;48.764;9.176;2023-03-01T02:41:35;1.60;83.90
26186;DHT22;20067;48.764;9.176;2023-03-01T02:44:02;1.50;83.70
26186;DHT22;20067;48.764;9.176;2023-03-01T02:46:28;1.30;84.50
26186;DHT22;20067;48.764;9.176;2023-03-01T02:48:58;1.20;85.10
26186;DHT22;20067;48.764;9.176;2023-03-01T02:54:15;1.00;86.10
26186;DHT22;20067;48.764;9.176;2023-03-01T02:56:47;0.80;86.40
26186;DHT22;20067;48.764;9.176;2023-03-01T02:59:15;0.80;86.60
26186;DHT22;20067;48.764;9.176;2023-03-01T03:01:41;0.80;86.60
26186;DHT22;20067;48.764;9.176;2023-03-01T03:04:10;1.00;86.20
26186;DHT22;20067;48.764;9.176;2023-03-01T03:06:36;0.90;86.40
26186;DHT22;20067;48.764;9.176;2023-03-01T03:09:03;1.00;86.30
26186;DHT22;20067;48.764;9.176;2023-03-01T03:11:30;1.20;85.80
26186;DHT22;20067;48.764;9.176;2023-03-01T03:13:56;1.40;85.10
26186;DHT22;20067;48.764;9.176;2023-03-01T03:16:22;1.40;84.70
26186;DHT22;20067;48.764;9.176;2023-03-01T03:18:48;1.40;84.80
26186;DHT22;20067;48.764;9.176;2023-03-01T03:21:15;1.50;84.70
26186;DHT22;20067;48.764;9.176;2023-03-01T03:23:41;1.60;84.40
26186;DHT22;20067;48.764;9.176;2023-03-01T03:26:07;1.60;84.20
26186;DHT22;20067;48.764;9.176;2023-03-01T03:28:34;1.70;84.10
26186;DHT22;20067;48.764;9.176;2023-03-01T03:31:00;1.70;83.80
26186;DHT22;20067;48.764;9.176;2023-03-01T03:33:32;1.70;83.70
26186;DHT22;20067;48.764;9.176;2023-03-01T03:35:58;1.70;84.20
26186;DHT22;20067;48.764;9.176;2023-03-01T03:38:24;1.70;83.80
26186;DHT22;20067;48.764;9.176;2023-03-01T03:41:02;1.70;83.70
26186;DHT22;20067;48.764;9.176;2023-03-01T03:43:29;1.80;83.70
26186;DHT22;20067;48.764;9.176;2023-03-01T03:45:55;1.90;83.50
26186;DHT22;20067;48.764;9.176;2023-03-01T03:48:23;1.90;83.70
26186;DHT22;20067;48.764;9.176;2023-03-01T03:50:51;2.00;83.40
26186;DHT22;20067;48.764;9.176;2023-03-01T03:53:18;2.10;83.10
26186;DHT22;20067;48.764;9.176;2023-03-01T03:55:44;2.10;82.90
26186;DHT22;20067;48.764;9.176;2023-03-01T03:58:10;2.20;82.70
26186;DHT22;20067;48.764;9.176;2023-03-01T04:00:38;2.20;82.50
26186;DHT22;20067;48.764;9.176;2023-03-01T04:03:04;1.90;83.50
26186;DHT22;20067;48.764;9.176;2023-03-01T04:05:30;2.00;83.10
26186;DHT22;20067;48.764;9.176;2023-03-01T04:07:56;2.00;83.00
26186;DHT22;20067;48.764;9.176;2023-03-01T04:10:31;1.90;83.10
26186;DHT22;20067;48.764;9.176;2023-03-01T04:12:58;1.90;83.10
26186;DHT22;20067;48.764;9.176;2023-03-01T04:15:25;1.70;83.70
26186;DHT22;20067;48.764;9.176;2023-03-01T04:17:52;1.80;83.80
26186;DHT22;20067;48.764;9.176;2023-03-01T04:20:20;1.90;83.50
26186;DHT22;20067;48.764;9.176;2023-03-01T04:25:23;2.00;83.20
26186;DHT22;20067;48.764;9.176;2023-03-01T04:27:49;2.00;83.00
26186;DHT22;20067;48.764;9.176;2023-03-01T04:30:14;2.00;83.10
26186;DHT22;20067;48.764;9.176;2023-03-01T04:32:40;2.00;83.00
26186;DHT22;20067;48.764;9.176;2023-03-01T04:35:06;2.10;83.00
26186;DHT22;20067;48.764;9.176;2023-03-01T04:37:32;2.00;82.90
26186;DHT22;20067;48.764;9.176;2023-03-01T04:39:58;2.10;83.00
26186;DHT22;20067;48.764;9.176;2023-03-01T04:42:23;2.20;82.60
26186;DHT22;20067;48.764;9.176;2023-03-01T04:44:49;2.30;82.40
26186;DHT22;20067;48.764;9.176;2023-03-01T04:47:16;2.30;82.20
26186;DHT22;20067;48.764;9.176;2023-03-01T04:49:42;2.30;82.20
26186;DHT22;20067;48.764;9.176;2023-03-01T04:52:08;2.10;82.80
26186;DHT22;20067;48.764;9.176;2023-03-01T04:54:35;2.00;83.20
26186;DHT22;20067;48.764;9.176;2023-03-01T04:57:02;2.10;83.30
26186;DHT22;20067;48.764;9.176;2023-03-01T04:59:28;2.10;83.20
26186;DHT22;20067;48.764;9.176;2023-03-01T05:01:55;2.20;82.80
26186;DHT22;20067;48.764;9.176;2023-03-01T05:04:22;2.30;82.70
26186;DHT22;20067;48.764;9.176;2023-03-01T05:06:47;2.30;82.50
26186;DHT22;20067;48.764;9.176;2023-03-01T05:09:13;2.40;82.40
26186;DHT22;20067;48.764;9.176;2023-03-01T05:11:38;2.10;82.70
26186;DHT22;20067;48.764;9.176;2023-03-01T05:14:06;1.70;83.90
26186;DHT22;20067;48.764;9.176;2023-03-01T05:16:32;1.60;84.50
26186;DHT22;20067;48.764;9.176;2023-03-01T05:18:58;1.40;85.30
26186;DHT22;20067;48.764;9.176;2023-03-01T05:21:27;1.40;85.60
26186;DHT22;20067;48.764;9.176;2023-03-01T05:23:52;1.30;86.50
26186;DHT22;20067;48.764;9.176;2023-03-01T05:26:20;1.50;86.20
26186;DHT22;20067;48.764;9.176;2023-03-01T05:28:47;1.60;85.70
26186;DHT22;20067;48.764;9.176;2023-03-01T05:31:13;1.80;85.20
26186;DHT22;20067;48.764;9.176;2023-03-01T05:33:40;1.90;84.80
26186;DHT22;20067;48.764;9.176;2023-03-01T05:36:07;2.00;84.40
26186;DHT22;20067;48.764;9.176;2023-03-01T05:38:33;2.10;84.00
26186;DHT22;20067;48.764;9.176;2023-03-01T05:40:59;2.30;83.70
26186;DHT22;20067;48.764;9.176;2023-03-01T05:43:25;2.30;83.50
26186;DHT22;20067;48.764;9.176;2023-03-01T05:45:51;2.30;83.40
26186;DHT22;20067;48.764;9.176;2023-03-01T05:48:17;2.30;83.20
26186;DHT22;20067;48.764;9.176;2023-03-01T05:50:45;2.40;83.10
26186;DHT22;20067;48.764;9.176;2023-03-01T05:53:16;2.50;82.80
26186;DHT22;20067;48.764;9.176;2023-03-01T05:55:43;2.50;82.50
26186;DHT22;20067;48.764;9.176;2023-03-01T05:58:14;2.40;82.60
26186;DHT22;20067;48.764;9.176;2023-03-01T06:00:41;2.40;83.00
26186;DHT22;20067;48.764;9.176;2023-03-01T06:03:09;2.30;83.40
26186;DHT22;20067;48.764;9.176;2023-03-01T06:05:35;2.30;83.60
26186;DHT22;20067;48.764;9.176;2023-03-01T06:08:00;2.20;83.80
26186;DHT22;20067;48.764;9.176;2023-03-01T06:10:26;2.10;83.50
26186;DHT22;20067;48.764;9.176;2023-03-01T06:12:52;1.70;84.60
26186;DHT22;20067;48.764;9.176;2023-03-01T06:15:19;1.70;85.00
26186;DHT22;20067;48.764;9.176;2023-03-01T06:17:46;1.70;85.00
26186;DHT22;20067;48.764;9.176;2023-03-01T06:20:23;1.80;84.90
26186;DHT22;20067;48.764;9.176;2023-03-01T06:22:49;2.00;84.70
26186;DHT22;20067;48.764;9.176;2023-03-01T06:25:19;2.10;84.10
26186;DHT22;20067;48.764;9.176;2023-03-01T06:27:46;2.10;84.00
26186;DHT22;20067;48.764;9.176;2023-03-01T06:30:17;2.20;83.60
26186;DHT22;20067;48.764;9.176;2023-03-01T06:32:42;2.20;83.60
26186;DHT22;20067;48.764;9.176;2023-03-01T06:35:13;2.30;83.50
26186;DHT22;20067;48.764;9.176;2023-03-01T06:37:40;2.20;83.60
26186;DHT22;20067;48.764;9.176;2023-03-01T06:40:07;2.20;83.60
26186;DHT22;20067;48.764;9.176;2023-03-01T06:42:36;2.10;83.80
26186;DHT22;20067;48.764;9.176;2023-03-01T06:45:02;2.20;84.00
26186;DHT22;20067;48.764;9.176;2023-03-01T06:47:28;2.10;84.00
26186;DHT22;20067;48.764;9.176;2023-03-01T06:49:54;1.90;84.70
26186;DHT22;20067;48.764;9.176;2023-03-01T06:52:19;2.00;84.70
26186;DHT22;20067;48.764;9.176;2023-03-01T06:54:45;1.90;84.50
26186;DHT22;20067;48.764;9.176;2023-03-01T06:57:11;1.70;85.00
26186;DHT22;20067;48.764;9.176;2023-03-01T06:59:36;1.70;85.30
26186;DHT22;20067;48.764;9.176;2023-03-01T07:02:02;1.60;85.50
26186;DHT22;20067;48.764;9.176;2023-03-01T07:04:27;1.40;85.80
26186;DHT22;20067;48.764;9.176;2023-03-01T07:06:56;1.50;85.90
26186;DHT22;20067;48.764;9.176;2023-03-01T07:09:25;1.50;85.80
26186;DHT22;20067;48.764;9.176;2023-03-01T07:11:50;1.50;86.00
26186;DHT22;20067;48.764;9.176;2023-03-01T07:14:16;1.60;85.60
26186;DHT22;20067;48.764;9.176;2023-03-01T07:16:42;1.70;85.50
26186;DHT22;20067;48.764;9.176;2023-03-01T07:19:07;1.50;85.50
26186;DHT22;20067;48.764;9.176;2023-03-01T07:21:33;1.20;86.40
26186;DHT22;20067;48.764;9.176;2023-03-01T07:23:58;1.20;86.70
26186;DHT22;20067;48.764;9.176;2023-03-01T07:26:24;1.20;86.90
26186;DHT22;20067;48.764;9.176;2023-03-01T07:28:49;1.40;86.50
26186;DHT22;20067;48.764;9.176;2023-03-01T07:31:15;1.30;86.50
26186;DHT22;20067;48.764;9.176;2023-03-01T07:33:41;1.10;86.70
26186;DHT22;20067;48.764;9.176;2023-03-01T07:36:07;1.20;86.90
26186;DHT22;20067;48.764;9.176;2023-03-01T07:38:32;1.20;86.70
26186;DHT22;20067;48.764;9.176;2023-03-01T07:41:00;1.10;87.20
26186;DHT22;20067;48.764;9.176;2023-03-01T07:43:27;1.30;87.10
26186;DHT22;20067;48.764;9.176;2023-03-01T07:45:53;1.40;86.40
26186;DHT22;20067;48.764;9.176;2023-03-01T07:48:19;1.50;86.00
26186;DHT22;20067;48.764;9.176;2023-03-01T07:50:44;1.40;86.10
26186;DHT22;20067;48.764;9.176;2023-03-01T07:53:10;1.60;86.00
26186;DHT22;20067;48.764;9.176;2023-03-01T07:55:36;1.50;85.80
26186;DHT22;20067;48.764;9.176;2023-03-01T07:58:02;1.70;85.80
26186;DHT22;20067;48.764;9.176;2023-03-01T08:00:27;2.00;85.20
26186;DHT22;20067;48.764;9.176;2023-03-01T08:02:53;2.20;84.60
26186;DHT22;20067;48.764;9.176;2023-03-01T08:05:19;2.30;83.60
26186;DHT22;20067;48.764;9.176;2023-03-01T08:07:44;2.30;83.60
26186;DHT22;20067;48.764;9.176;2023-03-01T08:10:10;2.20;83.50
26186;DHT22;20067;48.764;9.176;2023-03-01T08:12:36;2.00;84.00
26186;DHT22;20067;48.764;9.176;2023-03-01T08:15:02;1.90;84.70
26186;DHT22;20067;48.764;9.176;2023-03-01T08:17:27;2.10;84.30
26186;DHT22;20067;48.764;9.176;2023-03-01T08:19:53;2.30;83.90
26186;DHT22;20067;48.764;9.176;2023-03-01T08:22:19;2.10;83.90
26186;DHT22;20067;48.764;9.176;2023-03-01T08:24:44;2.10;83.90
26186;DHT22;20067;48.764;9.176;2023-03-01T08:27:10;2.20;83.50
26186;DHT22;20067;48.764;9.176;2023-03-01T08:29:37;2.30;83.40
26186;DHT22;20067;48.764;9.176;2023-03-01T08:32:03;2.60;82.80
26186;DHT22;20067;48.764;9.176;2023-03-01T08:34:29;3.40;81.90
26186;DHT22;20067;48.764;9.176;2023-03-01T08:36:56;4.50;79.00
26186;DHT22;20067;48.764;9.176;2023-03-01T08:39:22;5.50;75.60
26186;DHT22;20067;48.764;9.176;2023-03-01T08:41:47;6.40;72.90
26186;DHT22;20067;48.764;9.176;2023-03-01T08:44:14;6.70;70.50
26186;DHT22;20067;48.764;9.176;2023-03-01T08:46:42;7.00;70.40
26186;DHT22;20067;48.764;9.176;2023-03-01T08:49:14;7.70;69.10
26186;DHT22;20067;48.764;9.176;2023-03-01T08:51:40;7.60;67.50
26186;DHT22;20067;48.764;9.176;2023-03-01T08:54:10;8.00;67.40
26186;DHT22;20067;48.764;9.176;2023-03-01T08:56:36;8.30;66.20
26186;DHT22;20067;48.764;9.176;2023-03-01T08:59:02;8.00;66.40
26186;DHT22;20067;48.764;9.176;2023-03-01T09:01:29;8.10;66.50
26186;DHT22;20067;48.764;9.176;2023-03-01T09:03:55;8.50;65.40
26186;DHT22;20067;48.764;9.176;2023-03-01T09:06:20;8.60;65.00
26186;DHT22;20067;48.764;9.176;2023-03-01T09:08:48;8.90;64.60
26186;DHT22;20067;48.764;9.176;2023-03-01T09:11:17;9.50;63.40
26186;DHT22;20067;48.764;9.176;2023-03-01T09:13:43;9.60;62.70
26186;DHT22;20067;48.764;9.176;2023-03-01T09:16:11;9.20;62.40
26186;DHT22;20067;48.764;9.176;2023-03-01T09:18:37;8.80;64.20
26186;DHT22;20067;48.764;9.176;2023-03-01T09:21:08;8.90;64.40
26186;DHT22;20067;48.764;9.176;2023-03-01T09:23:39;9.50;63.50
26186;DHT22;20067;48.764;9.176;2023-03-01T09:26:10;8.90;64.10
26186;DHT22;20067;48.764;9.176;2023-03-01T09:28:37;8.90;64.40
26186;DHT22;20067;48.764;9.176;2023-03-01T09:31:03;10.10;62.20
26186;DHT22;20067;48.764;9.176;2023-03-01T09:33:31;10.50;61.20
26186;DHT22;20067;48.764;9.176;2023-03-01T09:36:05;11.10;59.60
26186;DHT22;20067;48.764;9.176;2023-03-01T09:38:31;11.50;59.20
26186;DHT22;20067;48.764;9.176;2023-03-01T09:40:57;11.80;58.00
26186;DHT22;20067;48.764;9.176;2023-03-01T09:43:46;11.80;57.30
26186;DHT22;20067;48.764;9.176;2023-03-01T09:46:14;11.10;58.90
26186;DHT22;20067;48.764;9.176;2023-03-01T09:48:48;10.90;58.70
26186;DHT22;20067;48.764;9.176;2023-03-01T09:51:34;11.10;59.50
26186;DHT22;20067;48.764;9.176;2023-03-01T09:54:04;11.10;58.80
26186;DHT22;20067;48.764;9.176;2023-03-01T09:56:39;11.20;59.10
26186;DHT22;20067;48.764;9.176;2023-03-01T10:09:38;9.80;61.20
26186;DHT22;20067;48.764;9.176;2023-03-01T10:12:25;9.00;61.10
26186;DHT22;20067;48.764;9.176;2023-03-01T10:15:02;8.50;62.70
26186;DHT22;20067;48.764;9.176;2023-03-01T10:17:40;8.80;62.40
26186;DHT22;20067;48.764;9.176;2023-03-01T10:20:33;7.80;64.00
26186;DHT22;20067;48.764;9.176;2023-03-01T10:23:02;8.00;63.90
26186;DHT22;20067;48.764;9.176;2023-03-01T10:31:25;9.40;61.70
26186;DHT22;20067;48.764;9.176;2023-03-01T10:34:04;9.50;61.80
26186;DHT22;20067;48.764;9.176;2023-03-01T10:36:32;10.00;60.30
26186;DHT22;20067;48.764;9.176;2023-03-01T10:38:59;10.30;59.80
26186;DHT22;20067;48.764;9.176;2023-03-01T10:41:26;10.00;60.30
26186;DHT22;20067;48.764;9.176;2023-03-01T10:43:59;10.50;59.60
26186;DHT22;20067;48.764;9.176;2023-03-01T10:49:20;11.10;58.80
26186;DHT22;20067;48.764;9.176;2023-03-01T10:51:49;11.60;56.90
26186;DHT22;20067;48.764;9.176;2023-03-01T10:54:31;11.80;57.10
26186;DHT22;20067;48.764;9.176;2023-03-01T10:57:00;12.40;55.30
26186;DHT22;20067;48.764;9.176;2023-03-01T11:02:30;12.00;56.00
26186;DHT22;20067;48.764;9.176;2023-03-01T11:05:02;12.00;55.70
26186;DHT22;20067;48.764;9.176;2023-03-01T11:07:28;12.20;56.00
26186;DHT22;20067;48.764;9.176;2023-03-01T11:09:54;12.40;55.40
26186;DHT22;20067;48.764;9.176;2023-03-01T11:12:21;12.40;54.90
26186;DHT22;20067;48.764;9.176;2023-03-01T11:14:54;11.80;54.90
26186;DHT22;20067;48.764;9.176;2023-03-01T11:17:28;10.90;57.00
26186;DHT22;20067;48.764;9.176;2023-03-01T11:22:26;12.20;55.70
26186;DHT22;20067;48.764;9.176;2023-03-01T11:24:54;12.30;55.50
26186;DHT22;20067;48.764;9.176;2023-03-01T11:27:31;12.90;54.20
26186;DHT22;20067;48.764;9.176;2023-03-01T11:35:25;11.40;56.80
26186;DHT22;20067;48.764;9.176;2023-03-01T11:57:01;10.20;58.80
26186;DHT22;20067;48.764;9.176;2023-03-01T12:10:42;9.50;62.10
26186;DHT22;20067;48.764;9.176;2023-03-01T12:43:53;8.50;65.00
26186;DHT22;20067;48.764;9.176;2023-03-01T12:49:44;8.20;65.40
26186;DHT22;20067;48.764;9.176;2023-03-01T12:52:16;8.20;65.70
26186;DHT22;20067;48.764;9.176;2023-03-01T12:54:46;8.10;65.40
26186;DHT22;20067;48.764;9.176;2023-03-01T12:57:21;8.10;65.90
26186;DHT22;20067;48.764;9.176;2023-03-01T13:00:09;8.20;65.70
26186;DHT22;20067;48.764;9.176;2023-03-01T13:03:15;8.30;65.50
26186;DHT22;20067;48.764;9.176;2023-03-01T13:11:20;8.50;65.30
26186;DHT22;20067;48.764;9.176;2023-03-01T13:13:47;8.60;65.10
26186;DHT22;20067;48.764;9.176;2023-03-01T13:21:35;8.50;65.20
26186;DHT22;20067;48.764;9.176;2023-03-01T13:24:01;8.40;65.20
26186;DHT22;20067;48.764;9.176;2023-03-01T13:26:27;8.40;65.40
26186;DHT22;20067;48.764;9.176;2023-03-01T13:28:54;8.60;65.60
26186;DHT22;20067;48.764;9.176;2023-03-01T13:33:54;8.50;65.40
26186;DHT22;20067;48.764;9.176;2023-03-01T13:44:32;8.50;65.60
26186;DHT22;20067;48.764;9.176;2023-03-01T13:54:59;8.60;65.10
26186;DHT22;20067;48.764;9.176;2023-03-01T13:57:33;8.70;65.60
26186;DHT22;20067;48.764;9.176;2023-03-01T13:59:59;8.80;65.30
26186;DHT22;20067;48.764;9.176;2023-03-01T14:02:25;9.00;65.10
26186;DHT22;20067;48.764;9.176;2023-03-01T14:04:58;9.00;64.90
26186;DHT22;20067;48.764;9.176;2023-03-01T14:07:25;9.00;65.20
26186;DHT22;20067;48.764;9.176;2023-03-01T14:09:58;9.10;65.00
26186;DHT22;20067;48.764;9.176;2023-03-01T14:12:41;9.10;65.00
26186;DHT22;20067;48.764;9.176;2023-03-01T14:15:15;9.20;64.70
26186;DHT22;20067;48.764;9.176;2023-03-01T14:18:14;8.90;65.10
26186;DHT22;20067;48.764;9.176;2023-03-01T14:20:44;8.60;66.10
26186;DHT22;20067;48.764;9.176;2023-03-01T14:23:20;8.60;66.20
26186;DHT22;20067;48.764;9.176;2023-03-01T14:25:55;8.70;65.80
26186;DHT22;20067;48.764;9.176;2023-03-01T14:28:21;8.60;65.90
26186;DHT22;20067;48.764;9.176;2023-03-01T14:30:53;8.70;66.20
26186;DHT22;20067;48.764;9.176;2023-03-01T14:33:23;8.60;66.10
26186;DHT22;20067;48.764;9.176;2023-03-01T14:38:23;8.60;66.50
26186;DHT22;20067;48.764;9.176;2023-03-01T14:40:52;8.60;66.40
26186;DHT22;20067;48.764;9.176;2023-03-01T14:43:23;8.70;66.60
26186;DHT22;20067;48.764;9.176;2023-03-01T14:45:50;8.90;66.40
26186;DHT22;20067;48.764;9.176;2023-03-01T14:48:16;8.80;66.60
26186;DHT22;20067;48.764;9.176;2023-03-01T14:50:43;8.80;66.50
26186;DHT22;20067;48.764;9.176;2023-03-01T14:53:21;8.90;66.50
26186;DHT22;20067;48.764;9.176;2023-03-01T14:55:52;8.90;66.30
26186;DHT22;20067;48.764;9.176;2023-03-01T14:58:23;8.90;66.20
26186;DHT22;20067;48.764;9.176;2023-03-01T15:00:59;8.80;66.50
26186;DHT22;20067;48.764;9.176;2023-03-01T15:06:01;8.60;66.60
26186;DHT22;20067;48.764;9.176;2023-03-01T15:08:27;8.60;66.60
26186;DHT22;20067;48.764;9.176;2023-03-01T15:11:20;8.60;66.80
26186;DHT22;20067;48.764;9.176;2023-03-01T15:13:44;8.70;66.90
26186;DHT22;20067;48.764;9.176;2023-03-01T15:16:17;8.90;66.90
26186;DHT22;20067;48.764;9.176;2023-03-01T15:18:50;8.90;66.30
26186;DHT22;20067;48.764;9.176;2023-03-01T15:21:29;8.80;66.60
26186;DHT22;20067;48.764;9.176;2023-03-01T15:24:20;8.80;66.60
26186;DHT22;20067;48.764;9.176;2023-03-01T15:27:00;8.90;66.50
26186;DHT22;20067;48.764;9.176;2023-03-01T15:29:33;8.60;67.00
26186;DHT22;20067;48.764;9.176;2023-03-01T15:34:50;8.70;67.10
26186;DHT22;20067;48.764;9.176;2023-03-01T15:37:38;8.70;66.90
26186;DHT22;20067;48.764;9.176;2023-03-01T15:40:22;8.70;67.00
26186;DHT22;20067;48.764;9.176;2023-03-01T15:42:50;8.50;67.20
26186;DHT22;20067;48.764;9.176;2023-03-01T15:48:01;8.60;67.00
26186;DHT22;20067;48.764;9.176;2023-03-01T15:50:33;8.50;66.70
26186;DHT22;20067;48.764;9.176;2023-03-01T15:53:00;8.50;67.30
26186;DHT22;20067;48.764;9.176;2023-03-01T15:55:29;8.40;67.20
26186;DHT22;20067;48.764;9.176;2023-03-01T16:00:40;8.40;67.40
26186;DHT22;20067;48.764;9.176;2023-03-01T16:03:06;8.60;66.70
26186;DHT22;20067;48.764;9.176;2023-03-01T16:05:34;9.00;65.70
26186;DHT22;20067;48.764;9.176;2023-03-01T16:08:02;9.20;65.00
26186;DHT22;20067;48.764;9.176;2023-03-01T16:10:28;9.30;64.80
26186;DHT22;20067;48.764;9.176;2023-03-01T16:12:54;9.20;64.50
26186;DHT22;20067;48.764;9.176;2023-03-01T16:15:21;8.80;64.90
26186;DHT22;20067;48.764;9.176;2023-03-01T16:17:47;8.60;65.60
26186;DHT22;20067;48.764;9.176;2023-03-01T16:20:13;8.60;65.60
26186;DHT22;20067;48.764;9.176;2023-03-01T16:22:42;8.50;66.00
26186;DHT22;20067;48.764;9.176;2023-03-01T16:25:09;8.50;66.00
26186;DHT22;20067;48.764;9.176;2023-03-01T16:27:35;8.50;65.90
26186;DHT22;20067;48.764;9.176;2023-03-01T16:30:01;8.40;66.30
26186;DHT22;20067;48.764;9.176;2023-03-01T16:32:26;8.20;66.30
26186;DHT22;20067;48.764;9.176;2023-03-01T16:34:52;8.20;66.50
26186;DHT22;20067;48.764;9.176;2023-03-01T16:37:17;8.20;66.70
26186;DHT22;20067;48.764;9.176;2023-03-01T16:39:44;8.10;66.70
26186;DHT22;20067;48.764;9.176;2023-03-01T16:42:10;8.10;66.90
26186;DHT22;20067;48.764;9.176;2023-03-01T16:44:35;7.80;67.40
26186;DHT22;20067;48.764;9.176;2023-03-01T16:47:01;7.80;67.70
26186;DHT22;20067;48.764;9.176;2023-03-01T16:49:26;7.80;67.90
26186;DHT22;20067;48.764;9.176;2023-03-01T16:51:53;7.80;67.80
26186;DHT22;20067;48.764;9.176;2023-03-01T16:54:19;7.70;68.10
26186;DHT22;20067;48.764;9.176;2023-03-01T16:56:45;7.70;68.20
26186;DHT22;20067;48.764;9.176;2023-03-01T16:59:10;7.60;68.60
26186;DHT22;20067;48.764;9.176;2023-03-01T17:01:36;7.50;68.50
26186;DHT22;20067;48.764;9.176;2023-03-01T17:04:06;7.40;68.90
26186;DHT22;20067;48.764;9.176;2023-03-01T17:06:32;7.50;68.80
26186;DHT22;20067;48.764;9.176;2023-03-01T17:08:58;7.50;68.70
26186;DHT22;20067;48.764;9.176;2023-03-01T17:11:25;7.50;69.00
26186;DHT22;20067;48.764;9.176;2023-03-01T17:13:50;7.50;69.10
26186;DHT22;20067;48.764;9.176;2023-03-01T17:16:18;7.30;69.30
26186;DHT22;20067;48.764;9.176;2023-03-01T17:18:44;7.10;69.90
26186;DHT22;20067;48.764;9.176;2023-03-01T17:21:11;7.10;70.30
26186;DHT22;20067;48.764;9.176;2023-03-01T17:23:38;7.10;70.50
26186;DHT22;20067;48.764;9.176;2023-03-01T17:26:05;7.10;70.60
26186;DHT22;20067;48.764;9.176;2023-03-01T17:28:33;7.20;70.50
26186;DHT22;20067;48.764;9.176;2023-03-01T17:31:00;7.30;70.50
26186;DHT22;20067;48.764;9.176;2023-03-01T17:33:27;7.30;70.50
26186;DHT22;20067;48.764;9.176;2023-03-01T17:35:55;7.40;70.30
26186;DHT22;20067;48.764;9.176;2023-03-01T17:38:21;7.50;70.20
26186;DHT22;20067;48.764;9.176;2023-03-01T17:40:47;7.50;70.30
26186;DHT22;20067;48.764;9.176;2023-03-01T17:43:14;7.60;70.20
26186;DHT22;20067;48.764;9.176;2023-03-01T17:45:40;7.50;70.40
26186;DHT22;20067;48.764;9.176;2023-03-01T17:48:09;7.30;70.90
26186;DHT22;20067;48.764;9.176;2023-03-01T17:50:37;7.10;71.40
26186;DHT22;20067;48.764;9.176;2023-03-01T17:53:05;7.00;71.70
26186;DHT22;20067;48.764;9.176;2023-03-01T17:55:43;7.00;72.00
26186;DHT22;20067;48.764;9.176;2023-03-01T17:58:11;6.90;72.30
26186;DHT22;20067;48.764;9.176;2023-03-01T18:00:38;6.90;72.20
26186;DHT22;20067;48.764;9.176;2023-03-01T18:03:04;6.90;72.40
26186;DHT22;20067;48.764;9.176;2023-03-01T18:05:34;6.80;72.50
26186;DHT22;20067;48.764;9.176;2023-03-01T18:08:00;6.70;72.80
26186;DHT22;20067;48.764;9.176;2023-03-01T18:10:26;6.60;73.00
26186;DHT22;20067;48.764;9.176;2023-03-01T18:12:52;6.50;73.70
26186;DHT22;20067;48.764;9.176;2023-03-01T18:15:18;6.40;73.70
26186;DHT22;20067;48.764;9.176;2023-03-01T18:17:43;6.40;73.90
26186;DHT22;20067;48.764;9.176;2023-03-01T18:20:09;6.50;73.80
26186;DHT22;20067;48.764;9.176;2023-03-01T18:22:37;6.50;73.80
26186;DHT22;20067;48.764;9.176;2023-03-01T18:25:04;6.40;73.80
26186;DHT22;20067;48.764;9.176;2023-03-01T18:27:30;6.40;74.10